LIMCLIPR

Guest
Details From LIMC - Milano Malpensa
To LIPR - Rimini Mil
Flight Number -
Tags generated
Created
Modified
Stats Distance 192 nm / 356 km
Max Altitude 23,400 ft / 7,132 m
Waypoints 3
Social Downloads 3
Likes 0
Share VATSIM

Download

Looking for another format? Having issues loading an existing format? Contact us
Advertisement - Login to hide

Notes

Basic altitude profile: - Ascent Rate: 2500ft/min - Ascent Speed: 250kts - Cruise Altitude: 35000ft - Cruise Speed: 420kts - Descent Rate: 1500ft/min - Descent Speed: 250kts Options: - Use NATs: yes - Use PACOTS: yes - Use low airways: no - Use high airways: no

Route

LIMC 4500N01000E LIPR

ID Type Via Altitude Latitude Longitude Leg Dist Tot Dist Heading (true) Name
O LIMC APT - 0 ft / 0 m 45.63061˚ 8.72811˚ - 0 nm - Milano Malpensa
4500N01000E LATLON - 23,400 ft / 7,132 m 45.00000˚ 10.00000˚ 65 nm 65 nm 125° / 126° -
O LIPR APT - 0 ft / 0 m 44.02029˚ 12.61175˚ 126 nm 192 nm 117° / 119° Rimini Mil

Altitude Profile

Advertisement - Login to hide

Weather


0- 5 10 15 20 25 30 35+ Temperature / ° C

Clouds and Precipitation
Forecast for 2018-05-25 12:00 UTC. Updated 2 hours ago

Ground ~20,000 ft ~40,000 ft Winds

LIMC

Details ICAO LIMC (MXP)
Name Milano Malpensa
Region Italy
Timezone Europe/Rome (UTC+2.0)
Stats Elevation 767 ft / 234 m (AMSL)
Location 45.630606° 8.728111°
Runways 2
Magnetic Variation 2.429° E

METAR

LIMC 251320Z 27008KT 230V310 CAVOK 28/15 Q1015 NOSIG

Decode

TAF

TAF LIMC 251100Z 2512/2618 VRB05KT CAVOK

Decode

Departure Runways

ID Width Length Bearing (true) Bearing (mag) Surface Threshold Offset Overrun Length
17L 197 ft / 60 m 12,869 ft / 3,923 m 169.62° 167.19° Asphalt 3,094 ft / 943 m 0 ft / 0 m
17R 197 ft / 60 m 12,869 ft / 3,923 m 169.62° 167.19° Asphalt 0 ft / 0 m 0 ft / 0 m
35L 197 ft / 60 m 12,869 ft / 3,923 m 349.62° 347.19° Asphalt 1,329 ft / 405 m 0 ft / 0 m
35R 197 ft / 60 m 12,869 ft / 3,923 m 349.62° 347.19° Asphalt 0 ft / 0 m 0 ft / 0 m

LIPR

Details ICAO LIPR (RMI)
Name Rimini Mil
Region Italy
Timezone Europe/Rome (UTC+2.0)
Stats Elevation 41 ft / 12 m (AMSL)
Location 44.020286° 12.611746°
Runways 1
Magnetic Variation 3.216° E

METAR

LIPR 251315Z 04008KT 8000 FEW030 25/20 Q1015

Decode

TAF

Not found

Destination Runways

ID Width Length Bearing (true) Bearing (mag) Surface Threshold Offset Overrun Length
13 148 ft / 45 m 9,818 ft / 2,992 m 127.79° 124.57° Asphalt 1,030 ft / 314 m 846 ft / 258 m
31 148 ft / 45 m 9,818 ft / 2,992 m 307.81° 304.59° Asphalt 1,006 ft / 307 m 376 ft / 115 m

Approach Navaids

Runway Type Ident Frequency Range Bearing (true) Bearing (mag) Slope Elevation
31 Localiser MIR 109.30 MHz 18 nm / 33 km 307.77° 304.56° - 41 ft / 12 m (AMSL)
31 Glidescope MIR 109.30 MHz 10 nm / 19 km 307.80° 304.58° 3.00° 41 ft / 12 m (AMSL)

Popular Alternatives